Time;durP1;ratioP1;P1;durP2;ratioP2;P2;SDS_P1;SDS_P2;PMS_P1;PMS_P2;Temp;Humidity;BMP_temperature;BMP_pressure;BME280_temperature;BME280_humidity;BME280_pressure;Samples;Min_cycle;Max_cycle;Signal;HPM_P1;HPM_P2
2021/03/13 00:00:18;;;;;;;2.90;1.83;;;6.50;99.90;;;;;;4973802;29;20448;-54
2021/03/13 00:02:48;;;;;;;1.83;1.30;;;6.40;99.90;;;;;;4973858;29;20862;-56
2021/03/13 00:05:22;;;;;;;1.33;1.00;;;6.40;99.90;;;;;;4974952;29;20456;-54
2021/03/13 00:07:52;;;;;;;5.23;2.83;;;6.40;99.90;;;;;;4975004;29;20882;-53
2021/03/13 00:10:21;;;;;;;3.90;2.60;;;6.40;99.90;;;;;;4974992;29;20859;-54
2021/03/13 00:12:50;;;;;;;1.77;1.10;;;6.40;99.90;;;;;;4974858;29;20885;-56
2021/03/13 00:15:19;;;;;;;2.70;1.00;;;6.50;99.90;;;;;;4974743;29;20574;-56
2021/03/13 00:17:51;;;;;;;1.53;0.90;;;6.50;99.90;;;;;;4959438;29;20775;-54
2021/03/13 00:20:25;;;;;;;1.87;1.20;;;6.40;99.90;;;;;;4975045;29;20436;-56
2021/03/13 00:22:56;;;;;;;1.70;1.10;;;6.40;99.90;;;;;;4974525;29;20480;-55
2021/03/13 00:25:29;;;;;;;1.17;0.80;;;6.50;99.90;;;;;;4974596;29;20522;-53
2021/03/13 00:27:57;;;;;;;4.30;1.33;;;6.40;99.90;;;;;;4974048;29;20754;-57
2021/03/13 00:30:28;;;;;;;3.03;1.03;;;6.40;99.90;;;;;;4974633;29;20452;-57
2021/03/13 00:32:57;;;;;;;1.40;0.90;;;6.50;99.90;;;;;;4974596;29;20806;-57
2021/03/13 00:35:27;;;;;;;4.00;0.97;;;6.50;99.90;;;;;;4974863;29;20471;-56
2021/03/13 00:37:57;;;;;;;1.73;0.80;;;6.50;99.90;;;;;;4974120;28;20908;-53
2021/03/13 00:40:27;;;;;;;1.30;1.00;;;6.50;99.90;;;;;;4974640;29;20471;-56
2021/03/13 00:42:56;;;;;;;1.73;1.00;;;6.50;99.90;;;;;;4975087;29;20503;-56
2021/03/13 00:45:25;;;;;;;2.40;1.43;;;6.50;99.90;;;;;;4975124;29;20777;-57
2021/03/13 00:47:56;;;;;;;1.87;1.23;;;6.50;99.90;;;;;;4974645;29;20474;-56
2021/03/13 00:50:27;;;;;;;1.93;1.07;;;6.40;99.90;;;;;;4975229;29;20466;-57
2021/03/13 00:52:57;;;;;;;2.63;1.20;;;6.40;99.90;;;;;;4974881;29;20500;-56
2021/03/13 00:55:26;;;;;;;2.00;1.10;;;6.40;99.90;;;;;;4976055;29;20479;-55
2021/03/13 00:57:55;;;;;;;2.67;1.80;;;6.40;99.90;;;;;;4975739;29;20837;-57
2021/03/13 01:00:26;;;;;;;2.50;1.47;;;6.30;99.90;;;;;;4974745;29;20452;-54
2021/03/13 01:02:55;;;;;;;3.17;1.87;;;6.30;99.90;;;;;;4974519;29;20546;-54
2021/03/13 01:05:23;;;;;;;7.37;1.70;;;6.30;99.90;;;;;;4974807;29;20559;-55
2021/03/13 01:07:52;;;;;;;6.20;2.60;;;6.30;99.90;;;;;;4974741;29;20460;-54
2021/03/13 01:10:25;;;;;;;2.97;1.53;;;6.30;99.90;;;;;;4975194;29;20436;-56
2021/03/13 01:12:56;;;;;;;3.50;1.50;;;6.30;99.90;;;;;;4975396;29;20448;-55
2021/03/13 01:15:28;;;;;;;3.10;1.40;;;6.30;99.90;;;;;;4975445;29;20839;-50
2021/03/13 01:17:57;;;;;;;4.93;1.57;;;6.30;99.90;;;;;;4976494;29;20470;-51
2021/03/13 01:20:26;;;;;;;3.27;1.20;;;6.30;99.90;;;;;;4975770;29;20870;-56
2021/03/13 01:22:55;;;;;;;1.67;1.23;;;6.30;99.90;;;;;;4975378;29;20476;-52
2021/03/13 01:25:25;;;;;;;3.70;1.50;;;6.30;99.90;;;;;;4975359;29;20519;-54
2021/03/13 01:27:53;;;;;;;3.60;1.40;;;6.30;99.90;;;;;;4975496;29;20440;-53
2021/03/13 01:30:23;;;;;;;2.33;1.40;;;6.40;99.90;;;;;;4975841;29;20452;-55
2021/03/13 01:32:53;;;;;;;2.73;1.37;;;6.40;99.90;;;;;;4975947;29;20458;-51
2021/03/13 01:35:22;;;;;;;3.10;1.77;;;6.40;99.90;;;;;;4975501;29;20462;-57
2021/03/13 01:37:51;;;;;;;2.40;1.80;;;6.40;99.90;;;;;;4975579;29;20454;-51
2021/03/13 01:40:20;;;;;;;2.10;1.47;;;6.40;99.90;;;;;;4974860;29;20905;-55
2021/03/13 01:42:51;;;;;;;3.67;1.40;;;6.40;99.90;;;;;;4957178;29;20814;-55
2021/03/13 01:45:21;;;;;;;4.57;1.50;;;6.30;99.90;;;;;;4955887;29;20472;-54
2021/03/13 01:47:50;;;;;;;1.70;1.47;;;6.30;99.90;;;;;;4955955;29;20467;-52
2021/03/13 01:50:19;;;;;;;2.97;1.67;;;6.30;99.90;;;;;;4955363;28;20828;-50
2021/03/13 01:52:50;;;;;;;5.50;1.40;;;6.30;99.90;;;;;;4955816;29;20452;-52
2021/03/13 02:05:43;;;;;;;2.07;1.40;;;6.20;99.90;;;;;;5402081;23;20482;-54
2021/03/13 02:08:19;;;;;;;1.90;1.50;;;6.20;99.90;;;;;;4993736;28;20821;-57
2021/03/13 02:10:55;;;;;;;1.80;1.37;;;6.20;99.90;;;;;;4993379;28;20827;-56
2021/03/13 02:13:29;;;;;;;1.70;1.50;;;6.20;99.90;;;;;;4995271;28;20419;-54
2021/03/13 02:16:10;;;;;;;4.17;1.80;;;6.10;99.90;;;;;;4995036;28;20532;-53
2021/03/13 02:18:46;;;;;;;6.13;3.30;;;6.10;99.90;;;;;;4994451;28;20501;-54
2021/03/13 02:21:23;;;;;;;4.10;2.47;;;6.10;99.90;;;;;;4996565;28;20454;-51
2021/03/13 02:24:06;;;;;;;1.53;1.37;;;6.00;99.90;;;;;;4996566;28;20526;-52
2021/03/13 02:26:53;;;;;;;2.83;2.33;;;6.00;99.90;;;;;;4994741;28;20904;-57
2021/03/13 02:29:47;;;;;;;1.80;1.60;;;6.00;99.90;;;;;;4994308;28;20506;-55
2021/03/13 02:32:26;;;;;;;2.03;1.40;;;6.00;99.90;;;;;;4994724;28;20466;-58
2021/03/13 02:35:03;;;;;;;2.27;1.33;;;6.00;99.90;;;;;;4994643;28;20517;-52
2021/03/13 02:37:38;;;;;;;2.73;1.57;;;6.00;99.90;;;;;;4976572;28;20913;-50
2021/03/13 02:40:08;;;;;;;3.90;1.60;;;6.00;99.90;;;;;;4979106;28;20773;-56
2021/03/13 02:42:46;;;;;;;3.53;2.20;;;6.10;99.90;;;;;;4981283;28;20450;-53
2021/03/13 02:45:17;;;;;;;4.50;1.77;;;6.10;99.90;;;;;;4992847;28;20442;-55
2021/03/13 02:47:46;;;;;;;6.87;2.00;;;6.10;99.90;;;;;;4993137;28;20514;-56
2021/03/13 02:50:16;;;;;;;5.17;2.47;;;6.10;99.90;;;;;;4992833;28;20804;-51
2021/03/13 02:52:45;;;;;;;3.30;2.00;;;6.20;99.90;;;;;;4992311;28;20902;-56
2021/03/13 02:55:16;;;;;;;2.20;1.70;;;6.20;99.90;;;;;;4992186;28;20438;-50
2021/03/13 02:57:46;;;;;;;3.17;2.10;;;6.20;99.90;;;;;;4992270;28;20835;-53
2021/03/13 03:00:21;;;;;;;4.20;2.20;;;6.20;99.90;;;;;;4991587;28;20787;-57
2021/03/13 03:02:53;;;;;;;4.00;2.43;;;6.30;99.90;;;;;;4993026;28;20497;-56
2021/03/13 03:05:23;;;;;;;4.03;2.10;;;6.30;99.90;;;;;;4994390;28;20908;-57
2021/03/13 03:07:53;;;;;;;2.73;1.80;;;6.40;99.90;;;;;;4995733;28;20469;-57
2021/03/13 03:10:25;;;;;;;2.50;1.50;;;6.40;99.90;;;;;;4995334;28;20538;-54
2021/03/13 03:12:54;;;;;;;4.33;2.07;;;6.50;99.90;;;;;;4994587;28;20933;-57
2021/03/13 03:15:27;;;;;;;3.40;1.73;;;6.40;99.90;;;;;;4993591;28;20627;-56
2021/03/13 03:17:58;;;;;;;2.73;1.93;;;6.40;99.90;;;;;;4993925;28;20458;-56
2021/03/13 03:20:27;;;;;;;4.10;1.77;;;6.40;99.90;;;;;;4990530;28;20447;-56
2021/03/13 03:22:57;;;;;;;6.27;2.40;;;6.40;99.90;;;;;;4986747;28;20489;-53
2021/03/13 03:25:26;;;;;;;4.60;1.43;;;6.40;99.90;;;;;;4991420;28;20439;-57
2021/03/13 03:27:53;;;;;;;2.97;2.03;;;6.40;99.90;;;;;;4988730;28;20461;-56
2021/03/13 03:30:24;;;;;;;3.10;1.57;;;6.40;99.90;;;;;;5006181;28;20822;-57
2021/03/13 03:35:29;;;;;;;3.17;1.50;;;6.40;99.90;;;;;;5308409;23;20508;-55
2021/03/13 03:37:59;;;;;;;2.53;2.20;;;6.40;99.90;;;;;;5004730;28;20443;-57
2021/03/13 03:40:29;;;;;;;2.27;2.07;;;6.30;99.90;;;;;;5005316;28;20435;-57
2021/03/13 03:43:03;;;;;;;3.23;1.70;;;6.40;99.90;;;;;;5003000;28;20806;-58
2021/03/13 03:45:34;;;;;;;5.10;4.10;;;6.40;99.90;;;;;;5001045;28;20469;-53
2021/03/13 03:48:08;;;;;;;2.20;1.30;;;6.40;99.90;;;;;;5005952;28;20510;-55
2021/03/13 03:50:40;;;;;;;2.33;1.67;;;6.40;99.90;;;;;;5000147;28;20513;-57
2021/03/13 03:53:16;;;;;;;3.00;2.03;;;6.40;99.90;;;;;;5002844;28;20784;-55
2021/03/13 03:55:48;;;;;;;4.93;1.60;;;6.40;99.90;;;;;;5011205;28;20546;-55
2021/03/13 03:58:22;;;;;;;3.80;1.60;;;6.30;99.90;;;;;;5010176;28;20513;-58
2021/03/13 04:00:54;;;;;;;4.40;1.50;;;6.30;99.90;;;;;;5007920;28;20458;-58
2021/03/13 04:03:24;;;;;;;4.90;1.70;;;6.30;99.90;;;;;;5005352;28;20479;-56
2021/03/13 04:05:52;;;;;;;2.23;1.33;;;6.30;99.90;;;;;;4987672;28;20797;-56
2021/03/13 04:08:22;;;;;;;2.10;1.60;;;6.20;99.90;;;;;;5010825;28;20522;-57
2021/03/13 04:10:52;;;;;;;2.87;1.53;;;6.20;99.90;;;;;;4988107;28;20785;-53
2021/03/13 04:13:26;;;;;;;2.53;1.70;;;6.20;99.90;;;;;;5609322;23;20445;-53
2021/03/13 04:15:56;;;;;;;1.60;1.40;;;6.20;99.90;;;;;;5004574;28;20433;-55
2021/03/13 04:18:24;;;;;;;3.50;1.97;;;6.20;99.90;;;;;;5007937;28;20457;-54
2021/03/13 04:20:53;;;;;;;5.20;2.10;;;6.10;99.90;;;;;;4987760;28;20482;-54
2021/03/13 04:28:33;;;;;;;3.83;1.40;;;6.10;99.90;;;;;;6107398;23;20383;-53
2021/03/13 04:38:51;;;;;;;2.70;1.70;;;6.10;99.90;;;;;;5040198;23;20833;-56
2021/03/13 04:43:55;;;;;;;4.50;1.83;;;6.10;99.90;;;;;;5409423;23;20504;-55
2021/03/13 04:46:24;;;;;;;2.37;1.60;;;6.10;99.90;;;;;;4968715;28;20807;-55
2021/03/13 04:48:53;;;;;;;2.80;1.33;;;6.00;99.90;;;;;;4966137;28;20458;-56
2021/03/13 04:51:21;;;;;;;1.70;1.10;;;6.00;99.90;;;;;;4968111;28;20821;-52
2021/03/13 04:59:02;;;;;;;3.70;1.80;;;6.10;99.90;;;;;;5085978;23;20485;-58
2021/03/13 05:01:29;;;;;;;3.10;1.53;;;6.10;99.90;;;;;;4988004;28;20466;-58
2021/03/13 05:03:57;;;;;;;4.20;1.40;;;6.10;99.90;;;;;;4975508;28;20565;-56
2021/03/13 05:06:26;;;;;;;3.00;1.50;;;6.10;99.90;;;;;;4962975;28;20460;-52
2021/03/13 05:16:42;;;;;;;2.03;1.53;;;6.20;99.90;;;;;;5362611;23;20936;-57
2021/03/13 05:26:56;;;;;;;1.93;1.33;;;6.20;99.90;;;;;;5947967;23;20443;-57
2021/03/13 05:29:24;;;;;;;4.93;2.13;;;6.20;99.90;;;;;;4997552;28;20439;-55
2021/03/13 05:31:54;;;;;;;4.37;1.97;;;6.20;99.90;;;;;;4997825;28;20522;-55
2021/03/13 05:34:23;;;;;;;5.80;2.30;;;6.20;99.90;;;;;;4978752;28;20808;-51
2021/03/13 05:36:51;;;;;;;1.83;1.53;;;6.20;99.90;;;;;;4992163;28;20535;-53
2021/03/13 05:39:20;;;;;;;3.23;1.73;;;6.20;99.90;;;;;;4991448;28;20844;-55
2021/03/13 05:41:49;;;;;;;4.30;1.90;;;6.30;99.90;;;;;;4991069;28;20522;-55
2021/03/13 05:44:18;;;;;;;2.00;1.70;;;6.30;99.90;;;;;;4975958;28;20490;-54
2021/03/13 05:46:49;;;;;;;2.13;1.80;;;6.30;99.90;;;;;;4977741;28;20486;-55
2021/03/13 05:49:22;;;;;;;2.30;1.47;;;6.40;99.90;;;;;;4982352;28;20919;-58
2021/03/13 05:51:51;;;;;;;2.20;1.57;;;6.40;99.90;;;;;;4988046;28;20772;-58
2021/03/13 05:54:20;;;;;;;5.37;2.30;;;6.40;99.90;;;;;;4972763;28;20538;-58
2021/03/13 05:56:49;;;;;;;5.80;2.10;;;6.50;99.90;;;;;;4956004;29;20464;-55
2021/03/13 05:59:17;;;;;;;7.10;2.63;;;6.50;99.90;;;;;;4955891;29;20896;-54
2021/03/13 06:01:46;;;;;;;5.20;1.43;;;6.60;99.90;;;;;;4956031;29;20774;-54
2021/03/13 06:04:15;;;;;;;2.70;2.10;;;6.60;99.90;;;;;;4955637;29;20505;-53
2021/03/13 06:06:45;;;;;;;3.97;1.93;;;6.70;99.90;;;;;;4955782;29;20872;-56
2021/03/13 06:09:14;;;;;;;7.67;2.30;;;6.70;99.90;;;;;;4955730;29;20863;-56
2021/03/13 06:11:42;;;;;;;3.67;2.73;;;6.70;99.90;;;;;;4955876;29;20789;-56
2021/03/13 06:14:10;;;;;;;2.30;1.80;;;6.70;99.90;;;;;;4960872;29;20774;-54
2021/03/13 06:16:38;;;;;;;2.73;2.00;;;6.70;99.90;;;;;;4967728;29;20756;-57
2021/03/13 06:19:06;;;;;;;2.57;1.70;;;6.80;99.90;;;;;;4970519;29;20837;-55
2021/03/13 06:21:36;;;;;;;2.57;1.93;;;6.70;99.90;;;;;;4970021;29;20824;-57
2021/03/13 06:24:18;;;;;;;3.20;2.33;;;6.70;99.90;;;;;;4968905;29;20949;-57
2021/03/13 06:26:54;;;;;;;7.73;2.40;;;6.80;99.90;;;;;;4969694;29;20424;-51
2021/03/13 06:29:23;;;;;;;3.20;2.13;;;6.80;99.90;;;;;;4969445;29;20842;-54
2021/03/13 06:32:08;;;;;;;3.67;1.93;;;6.80;99.90;;;;;;4969381;28;20843;-51
2021/03/13 06:34:36;;;;;;;4.43;2.00;;;6.80;99.90;;;;;;4973004;28;20521;-56
2021/03/13 06:37:24;;;;;;;3.00;2.60;;;6.90;99.90;;;;;;4971866;28;20459;-55
2021/03/13 06:39:55;;;;;;;4.53;3.20;;;6.90;99.90;;;;;;4974059;28;21073;-59
2021/03/13 06:42:25;;;;;;;3.00;2.03;;;7.00;99.90;;;;;;4971032;29;20766;-57
2021/03/13 06:45:00;;;;;;;3.67;2.53;;;7.10;99.90;;;;;;4972630;28;20483;-57
2021/03/13 06:47:33;;;;;;;2.57;1.80;;;7.10;99.90;;;;;;4964792;29;20752;-57
2021/03/13 06:50:14;;;;;;;2.23;1.80;;;7.10;99.90;;;;;;4961571;29;21083;-55
2021/03/13 06:52:43;;;;;;;8.20;1.97;;;7.20;99.90;;;;;;4962586;29;20780;-56
2021/03/13 06:55:23;;;;;;;3.93;2.07;;;7.20;99.90;;;;;;4960224;28;20932;-58
2021/03/13 06:57:53;;;;;;;2.43;1.63;;;7.20;99.90;;;;;;4965085;29;20891;-54
2021/03/13 07:00:31;;;;;;;2.67;1.70;;;7.30;99.90;;;;;;4974000;28;20764;-54
2021/03/13 07:03:10;;;;;;;2.63;1.73;;;7.30;99.90;;;;;;4980090;28;20990;-54
2021/03/13 07:05:41;;;;;;;3.43;1.90;;;7.30;99.90;;;;;;4959801;28;20915;-56
2021/03/13 07:08:26;;;;;;;3.23;1.60;;;7.30;99.90;;;;;;4966683;29;20789;-55
2021/03/13 07:11:16;;;;;;;3.93;1.77;;;7.40;99.90;;;;;;4985830;28;20760;-55
2021/03/13 07:13:45;;;;;;;3.43;1.40;;;7.40;99.90;;;;;;4993200;28;20435;-55
2021/03/13 07:16:27;;;;;;;2.60;1.57;;;7.40;99.90;;;;;;4992508;28;20446;-53
2021/03/13 07:18:58;;;;;;;2.80;1.47;;;7.40;99.90;;;;;;4979525;28;20787;-54
2021/03/13 07:21:27;;;;;;;2.90;1.83;;;7.40;99.90;;;;;;4975968;29;20447;-57
2021/03/13 07:23:57;;;;;;;2.57;1.80;;;7.50;99.90;;;;;;4974041;29;20479;-55
2021/03/13 07:26:28;;;;;;;5.53;2.33;;;7.50;99.90;;;;;;4978756;29;20455;-54
2021/03/13 07:29:00;;;;;;;2.70;1.70;;;7.60;99.90;;;;;;4964759;28;20953;-56
2021/03/13 07:31:34;;;;;;;2.60;2.30;;;7.60;99.90;;;;;;4971698;28;20852;-59
2021/03/13 07:34:05;;;;;;;2.80;2.03;;;7.60;99.90;;;;;;4966254;29;20457;-52
2021/03/13 07:36:38;;;;;;;2.47;1.90;;;7.60;99.90;;;;;;4972686;29;21021;-56
2021/03/13 07:39:14;;;;;;;3.90;2.43;;;7.60;99.90;;;;;;4972789;29;20455;-58
2021/03/13 07:41:54;;;;;;;5.27;2.30;;;7.60;99.90;;;;;;4972972;29;20474;-55
2021/03/13 07:44:22;;;;;;;3.93;1.90;;;7.60;99.90;;;;;;4972066;29;20489;-56
2021/03/13 07:46:50;;;;;;;3.70;1.83;;;7.60;99.90;;;;;;4971560;29;20809;-44
2021/03/13 07:49:18;;;;;;;5.83;1.90;;;7.70;99.90;;;;;;4964557;28;20505;-46
2021/03/13 07:51:48;;;;;;;2.80;2.10;;;7.80;99.90;;;;;;4983077;28;20447;-45
2021/03/13 07:54:17;;;;;;;4.43;1.93;;;7.90;99.90;;;;;;4985891;28;20504;-44
2021/03/13 07:56:48;;;;;;;3.63;1.73;;;8.00;99.90;;;;;;4986338;28;20955;-44
2021/03/13 07:59:43;;;;;;;2.43;1.90;;;8.00;99.90;;;;;;4993508;28;20834;-46
2021/03/13 08:02:38;;;;;;;4.00;2.30;;;7.90;99.90;;;;;;4985911;28;20454;-48
2021/03/13 08:05:08;;;;;;;4.87;2.70;;;8.00;99.90;;;;;;4983385;28;20994;-48
2021/03/13 08:08:09;;;;;;;4.10;2.43;;;8.00;99.90;;;;;;4986218;28;20906;-48
2021/03/13 08:10:58;;;;;;;2.83;1.93;;;8.20;99.90;;;;;;4904365;29;20888;-45
2021/03/13 08:14:04;;;;;;;3.70;2.10;;;8.30;99.90;;;;;;4912625;29;20822;-43
2021/03/13 08:16:48;;;;;;;3.40;2.30;;;8.40;99.90;;;;;;4973153;28;20805;-50
2021/03/13 08:19:34;;;;;;;4.30;2.67;;;8.30;99.90;;;;;;4990220;28;20460;-45
2021/03/13 08:22:23;;;;;;;3.43;2.43;;;8.10;99.90;;;;;;5010583;28;20446;-47
2021/03/13 08:24:52;;;;;;;3.20;2.37;;;7.80;99.90;;;;;;5005874;28;20478;-45
2021/03/13 08:27:39;;;;;;;3.43;2.53;;;7.70;99.90;;;;;;4991336;28;20493;-49
2021/03/13 08:30:23;;;;;;;3.30;2.13;;;7.60;99.90;;;;;;4991449;28;20449;-49
2021/03/13 08:33:06;;;;;;;4.10;3.00;;;7.50;99.90;;;;;;4989651;28;20948;-45
2021/03/13 08:35:50;;;;;;;5.00;3.40;;;7.50;99.90;;;;;;4991508;28;20948;-49
2021/03/13 08:38:21;;;;;;;4.17;2.40;;;7.40;99.90;;;;;;4982305;28;20915;-50
2021/03/13 08:40:54;;;;;;;3.43;2.47;;;7.40;99.90;;;;;;4985406;28;20865;-48
2021/03/13 08:43:38;;;;;;;4.30;2.93;;;7.40;99.90;;;;;;4991226;28;20471;-50
2021/03/13 08:46:27;;;;;;;6.73;4.20;;;7.30;99.90;;;;;;4989253;28;20539;-49
2021/03/13 08:49:13;;;;;;;4.50;2.60;;;7.20;99.90;;;;;;4990605;28;20811;-49
2021/03/13 08:51:42;;;;;;;4.80;3.13;;;7.30;99.90;;;;;;4987967;28;20833;-45
2021/03/13 08:54:46;;;;;;;6.70;4.27;;;7.20;99.90;;;;;;4982072;28;20775;-49
2021/03/13 08:57:14;;;;;;;8.30;3.50;;;7.20;99.90;;;;;;4963244;29;20855;-46
2021/03/13 08:59:45;;;;;;;11.20;4.60;;;7.30;99.90;;;;;;4965551;28;20472;-46
2021/03/13 09:02:14;;;;;;;5.43;3.63;;;7.30;99.90;;;;;;4989281;28;20906;-45
2021/03/13 09:04:44;;;;;;;6.37;3.93;;;7.30;99.90;;;;;;4989824;28;20957;-44
2021/03/13 09:07:16;;;;;;;5.87;3.47;;;7.30;99.90;;;;;;4988693;28;20463;-47
2021/03/13 09:09:44;;;;;;;3.70;3.03;;;7.30;99.90;;;;;;4998786;28;20439;-43
2021/03/13 09:12:13;;;;;;;6.30;3.47;;;7.30;99.90;;;;;;4990871;28;20475;-46
2021/03/13 09:14:42;;;;;;;8.03;3.40;;;7.30;99.90;;;;;;4995503;28;20681;-43
2021/03/13 09:17:11;;;;;;;9.13;5.33;;;7.20;99.90;;;;;;4990592;28;20843;-54
2021/03/13 09:19:39;;;;;;;5.57;3.83;;;7.20;99.90;;;;;;4991487;28;20462;-51
2021/03/13 09:22:09;;;;;;;6.20;2.90;;;7.10;99.90;;;;;;4991247;28;20788;-50
2021/03/13 09:24:38;;;;;;;7.83;4.83;;;7.20;99.90;;;;;;4991147;28;20478;-47
2021/03/13 09:27:07;;;;;;;6.97;4.47;;;7.10;99.90;;;;;;4990304;28;21923;-49
2021/03/13 09:29:36;;;;;;;5.40;3.70;;;7.10;99.90;;;;;;4989782;28;20836;-57
2021/03/13 09:32:06;;;;;;;6.67;3.80;;;7.10;99.90;;;;;;4981326;28;20872;-53
2021/03/13 09:34:38;;;;;;;8.03;3.50;;;7.10;99.90;;;;;;4987306;28;20687;-56
2021/03/13 09:37:17;;;;;;;7.70;4.87;;;7.10;99.90;;;;;;4993337;28;21135;-53
2021/03/13 09:39:46;;;;;;;4.60;2.90;;;7.10;99.90;;;;;;5007071;28;20444;-52
2021/03/13 09:42:16;;;;;;;8.47;4.07;;;7.20;99.90;;;;;;5000403;28;20829;-53
2021/03/13 09:44:47;;;;;;;6.97;3.90;;;7.20;99.90;;;;;;5004922;28;20553;-54
2021/03/13 09:47:19;;;;;;;6.27;3.80;;;7.20;99.90;;;;;;5002994;28;20526;-54
2021/03/13 09:49:51;;;;;;;8.70;3.80;;;7.10;99.90;;;;;;5008206;28;20461;-55
2021/03/13 09:52:26;;;;;;;10.53;5.40;;;7.10;99.90;;;;;;5007555;28;20454;-56
2021/03/13 09:55:08;;;;;;;7.10;4.07;;;7.20;99.90;;;;;;4989920;28;20500;-52
2021/03/13 09:57:37;;;;;;;7.30;3.17;;;7.20;99.90;;;;;;4996004;28;20661;-57
2021/03/13 10:00:07;;;;;;;9.27;3.80;;;7.20;99.90;;;;;;4992997;28;20540;-55
2021/03/13 10:02:35;;;;;;;8.03;4.17;;;7.30;99.90;;;;;;4996060;28;20524;-54
2021/03/13 10:05:06;;;;;;;10.47;4.10;;;7.30;99.90;;;;;;4993928;28;20478;-51
2021/03/13 10:07:39;;;;;;;5.40;2.40;;;7.40;99.90;;;;;;4997656;28;20446;-53
2021/03/13 10:10:09;;;;;;;4.67;3.00;;;7.40;99.90;;;;;;4993206;28;20795;-57
2021/03/13 10:12:42;;;;;;;3.33;2.47;;;7.40;99.90;;;;;;5005265;28;20506;-51
2021/03/13 10:15:22;;;;;;;8.03;2.70;;;7.50;99.90;;;;;;4999395;28;20795;-50
2021/03/13 10:18:01;;;;;;;4.40;2.10;;;7.40;99.90;;;;;;5019454;23;21164;-55
2021/03/13 10:20:32;;;;;;;5.23;2.80;;;7.40;99.90;;;;;;4990129;28;20749;-55
2021/03/13 10:23:07;;;;;;;4.90;2.40;;;7.40;99.90;;;;;;4979601;28;20484;-54
2021/03/13 10:25:37;;;;;;;3.37;2.27;;;7.50;99.90;;;;;;4999119;28;20927;-54
2021/03/13 10:28:10;;;;;;;3.77;2.27;;;7.60;99.90;;;;;;4994138;28;20953;-56
2021/03/13 10:30:41;;;;;;;1.80;1.60;;;7.70;99.90;;;;;;4990919;28;20458;-53
2021/03/13 10:33:10;;;;;;;3.83;2.53;;;7.70;99.90;;;;;;5001028;28;20792;-51
2021/03/13 10:35:39;;;;;;;3.37;2.00;;;7.80;99.90;;;;;;4991439;28;20463;-54
2021/03/13 10:38:18;;;;;;;5.10;2.20;;;7.80;99.90;;;;;;4991124;28;20474;-56
2021/03/13 10:40:49;;;;;;;3.40;1.80;;;7.90;99.90;;;;;;4999392;28;20992;-55
2021/03/13 10:43:23;;;;;;;2.73;1.70;;;7.90;99.90;;;;;;4998007;28;20462;-56
2021/03/13 10:46:21;;;;;;;2.80;2.37;;;7.90;99.90;;;;;;4995579;28;20427;-56
2021/03/13 10:49:05;;;;;;;2.30;1.73;;;8.00;99.90;;;;;;4993174;28;20450;-56
2021/03/13 10:51:41;;;;;;;2.60;1.90;;;8.00;99.90;;;;;;4990558;28;20784;-54
2021/03/13 10:54:23;;;;;;;1.87;1.47;;;8.00;99.90;;;;;;4990823;28;20441;-57
2021/03/13 10:56:51;;;;;;;3.83;1.77;;;8.00;99.90;;;;;;4998358;28;20769;-55
2021/03/13 10:59:33;;;;;;;1.70;1.30;;;8.00;99.90;;;;;;4986519;28;20769;-56
2021/03/13 11:02:01;;;;;;;3.17;1.70;;;8.10;99.90;;;;;;4993255;28;20793;-54
2021/03/13 11:04:32;;;;;;;2.70;1.20;;;8.10;99.90;;;;;;4988383;28;20479;-51
2021/03/13 11:07:00;;;;;;;3.00;1.50;;;8.10;99.90;;;;;;4992017;28;20845;-53
2021/03/13 11:09:29;;;;;;;1.90;1.07;;;8.10;99.90;;;;;;4993311;28;20851;-55
2021/03/13 11:11:56;;;;;;;1.83;1.20;;;8.20;99.90;;;;;;4999881;28;20442;-54
2021/03/13 11:14:23;;;;;;;2.30;1.10;;;8.20;99.90;;;;;;4994317;28;20447;-55
2021/03/13 11:16:52;;;;;;;1.63;1.00;;;8.30;99.90;;;;;;4996582;28;20837;-50
2021/03/13 11:19:19;;;;;;;2.37;1.40;;;8.30;99.90;;;;;;4986117;28;20815;-51
2021/03/13 11:21:48;;;;;;;1.20;0.97;;;8.40;99.90;;;;;;4988125;28;20939;-55
2021/03/13 11:24:18;;;;;;;1.67;1.00;;;8.40;99.90;;;;;;4992605;28;20909;-54
2021/03/13 11:26:47;;;;;;;1.80;1.20;;;8.50;99.90;;;;;;4992178;28;20836;-53
2021/03/13 11:29:17;;;;;;;1.40;1.03;;;8.60;99.90;;;;;;4988013;28;20449;-54
2021/03/13 11:31:46;;;;;;;2.10;1.03;;;8.70;99.90;;;;;;4989716;28;20911;-54
2021/03/13 11:34:17;;;;;;;2.27;1.00;;;8.80;99.90;;;;;;4984637;28;20454;-55
2021/03/13 11:36:46;;;;;;;1.30;1.00;;;8.90;99.90;;;;;;4981780;28;20754;-56
2021/03/13 11:39:13;;;;;;;1.50;1.10;;;8.90;99.90;;;;;;4994539;28;20790;-56
2021/03/13 11:41:42;;;;;;;1.80;1.20;;;9.00;99.90;;;;;;4997564;28;20841;-57
2021/03/13 11:44:12;;;;;;;2.13;1.23;;;9.00;99.90;;;;;;4994818;28;20470;-52
2021/03/13 11:46:39;;;;;;;1.77;1.00;;;9.00;99.90;;;;;;5005034;28;20448;-50
2021/03/13 11:49:08;;;;;;;3.03;1.00;;;9.20;99.90;;;;;;5010358;28;20440;-57
2021/03/13 11:51:36;;;;;;;3.10;1.33;;;9.30;99.90;;;;;;4997556;28;20435;-53
2021/03/13 11:54:05;;;;;;;5.00;1.87;;;9.50;99.90;;;;;;4993906;28;20439;-57
2021/03/13 11:56:33;;;;;;;3.07;1.67;;;9.60;99.90;;;;;;4992004;28;20558;-56
2021/03/13 11:59:02;;;;;;;2.67;1.67;;;9.70;99.90;;;;;;5000257;28;20802;-55
2021/03/13 12:01:31;;;;;;;2.67;1.33;;;9.80;99.90;;;;;;4991559;28;20651;-55
2021/03/13 12:04:00;;;;;;;1.87;1.30;;;9.90;99.90;;;;;;4984866;28;21090;-57
2021/03/13 12:06:28;;;;;;;1.60;1.27;;;10.00;99.90;;;;;;4989152;28;20839;-56
2021/03/13 12:08:56;;;;;;;2.13;1.00;;;10.20;99.90;;;;;;4986825;28;20788;-55
2021/03/13 12:11:25;;;;;;;2.10;1.00;;;10.30;99.90;;;;;;4980284;28;20779;-54
2021/03/13 12:13:53;;;;;;;1.50;1.13;;;10.40;99.90;;;;;;4988050;28;20886;-56
2021/03/13 12:16:25;;;;;;;1.40;1.00;;;10.50;99.90;;;;;;4989482;28;20776;-53
2021/03/13 12:18:53;;;;;;;3.10;1.13;;;10.50;99.90;;;;;;4986515;28;20941;-52
2021/03/13 12:21:20;;;;;;;2.17;1.30;;;10.50;99.90;;;;;;4999227;28;20465;-54
2021/03/13 12:23:50;;;;;;;3.37;1.10;;;10.50;99.90;;;;;;4987644;28;20913;-53
2021/03/13 12:26:19;;;;;;;1.50;1.00;;;10.60;99.90;;;;;;4979682;28;20855;-55
2021/03/13 12:28:48;;;;;;;2.40;1.30;;;10.70;99.90;;;;;;4985178;28;20844;-52
2021/03/13 12:31:17;;;;;;;1.47;0.97;;;10.70;99.90;;;;;;4980134;28;20975;-53
2021/03/13 12:33:45;;;;;;;3.30;1.00;;;10.80;99.90;;;;;;4984731;28;20463;-54
2021/03/13 12:36:14;;;;;;;1.20;1.10;;;10.90;99.90;;;;;;4989513;28;20814;-48
2021/03/13 12:38:44;;;;;;;1.40;1.00;;;11.00;99.90;;;;;;4980395;28;20804;-56
2021/03/13 12:41:12;;;;;;;1.40;1.10;;;11.00;99.90;;;;;;4988142;28;20530;-56
2021/03/13 12:43:41;;;;;;;2.07;1.03;;;11.00;99.90;;;;;;4976256;28;21012;-52
2021/03/13 12:46:14;;;;;;;1.87;0.80;;;11.10;99.90;;;;;;4983113;28;20929;-57
2021/03/13 12:48:43;;;;;;;2.13;1.20;;;11.10;99.90;;;;;;4991791;28;20440;-55
2021/03/13 12:51:14;;;;;;;1.27;0.90;;;11.20;99.90;;;;;;4981474;28;20819;-57
2021/03/13 12:53:43;;;;;;;1.77;0.90;;;11.20;99.90;;;;;;4989475;28;21004;-56
2021/03/13 12:56:11;;;;;;;2.50;1.03;;;11.40;99.90;;;;;;4991762;28;20777;-55
2021/03/13 12:58:40;;;;;;;1.93;0.90;;;11.50;99.90;;;;;;4993865;28;20484;-55
2021/03/13 13:01:08;;;;;;;1.50;0.80;;;11.50;99.90;;;;;;4992855;28;20469;-56
2021/03/13 13:03:36;;;;;;;9.57;5.57;;;11.50;99.90;;;;;;4994863;28;20465;-56
2021/03/13 13:06:04;;;;;;;3.20;1.90;;;11.40;99.90;;;;;;4987695;28;20803;-57
2021/03/13 13:08:34;;;;;;;1.80;1.10;;;11.40;99.90;;;;;;4997409;28;20820;-52
2021/03/13 13:11:01;;;;;;;1.47;0.80;;;11.40;99.90;;;;;;4988741;28;20470;-50
2021/03/13 13:13:29;;;;;;;1.50;0.80;;;11.40;99.90;;;;;;4989433;28;20526;-57
2021/03/13 13:15:59;;;;;;;1.30;0.90;;;11.40;99.90;;;;;;4992957;28;20876;-54
2021/03/13 13:18:30;;;;;;;1.10;0.70;;;11.30;99.90;;;;;;4986634;28;20571;-51
2021/03/13 13:20:58;;;;;;;2.37;1.03;;;11.30;99.90;;;;;;4997897;28;20823;-53
2021/03/13 13:23:26;;;;;;;7.40;0.93;;;11.10;99.90;;;;;;4981115;28;20851;-48
2021/03/13 13:25:54;;;;;;;1.20;0.90;;;10.90;99.90;;;;;;4986443;28;20783;-53
2021/03/13 13:28:22;;;;;;;4.73;0.80;;;10.60;99.90;;;;;;4980878;28;20454;-56
2021/03/13 13:30:50;;;;;;;8.50;4.47;;;10.20;99.90;;;;;;4993481;28;20457;-56
2021/03/13 13:33:18;;;;;;;2.60;2.30;;;10.00;99.90;;;;;;4997027;28;20846;-57
2021/03/13 13:35:47;;;;;;;1.30;0.70;;;9.80;99.90;;;;;;4989867;28;20522;-56
2021/03/13 13:38:16;;;;;;;1.20;1.00;;;9.50;99.90;;;;;;4986571;28;20439;-55
2021/03/13 13:40:45;;;;;;;1.37;0.87;;;9.30;99.90;;;;;;4982178;28;20776;-51
2021/03/13 13:43:17;;;;;;;4.67;1.03;;;9.20;99.90;;;;;;4987589;28;20959;-55
2021/03/13 13:45:46;;;;;;;3.40;0.90;;;9.20;99.90;;;;;;4987574;28;20485;-53
2021/03/13 13:48:15;;;;;;;1.83;1.20;;;9.10;99.90;;;;;;5000175;28;20455;-52
2021/03/13 13:50:46;;;;;;;1.67;0.80;;;9.10;99.90;;;;;;4989568;28;20816;-52
2021/03/13 13:53:18;;;;;;;1.27;0.80;;;9.00;99.90;;;;;;4985705;28;20777;-54
2021/03/13 13:55:47;;;;;;;1.97;1.13;;;8.90;99.90;;;;;;4984217;28;20981;-57
2021/03/13 13:58:16;;;;;;;1.70;1.00;;;8.70;99.90;;;;;;4998578;28;20546;-57
2021/03/13 14:00:44;;;;;;;4.63;2.23;;;8.70;99.90;;;;;;5004966;28;20687;-51
2021/03/13 14:03:12;;;;;;;3.63;1.00;;;8.60;99.90;;;;;;4989840;28;20962;-53
2021/03/13 14:05:40;;;;;;;3.73;0.90;;;8.60;99.90;;;;;;5004099;28;20965;-56
2021/03/13 14:08:09;;;;;;;3.53;1.30;;;8.60;99.90;;;;;;4992397;28;20883;-55